Time;durP1;ratioP1;P1;durP2;ratioP2;P2;SDS_P1;SDS_P2;PMS_P1;PMS_P2;Temp;Humidity;BMP_temperature;BMP_pressure;BME280_temperature;BME280_humidity;BME280_pressure;Samples;Min_cycle;Max_cycle;Signal;HPM_P1;HPM_P2
2023/10/14 00:01:34;;;;;;;0.00;0.00;;;;;;;21.33;67.77;100302.75;5127508;27;20051;-68
2023/10/14 00:04:04;;;;;;;0.00;0.00;;;;;;;21.29;68.86;100307.41;5110206;28;20029;-69
2023/10/14 00:06:32;;;;;;;0.00;0.00;;;;;;;21.19;68.33;100307.13;5129341;27;20046;-68
2023/10/14 00:08:57;;;;;;;0.00;0.00;;;;;;;21.31;66.31;100305.50;5105169;27;20113;-68
2023/10/14 00:11:33;;;;;;;0.00;0.00;;;;;;;21.36;63.72;100302.56;5126409;27;20098;-68
2023/10/14 00:13:59;;;;;;;0.00;0.00;;;;;;;22.15;60.97;100310.78;5109278;28;20099;-68
2023/10/14 00:18:51;;;;;;;0.00;0.00;;;;;;;21.17;61.43;100342.72;5114056;28;20034;-68
2023/10/14 00:21:17;;;;;;;0.00;0.00;;;;;;;21.24;61.80;100354.69;5127615;27;20054;-68
2023/10/14 00:23:42;;;;;;;0.00;0.00;;;;;;;20.38;69.46;100373.97;5125871;27;20050;-69
2023/10/14 00:26:15;;;;;;;0.00;0.00;;;;;;;19.28;70.41;100371.25;5111971;27;20108;-68
2023/10/14 00:28:45;;;;;;;0.00;0.00;;;;;;;20.42;65.59;100366.69;5121277;27;20031;-68
2023/10/14 00:31:10;;;;;;;0.00;0.00;;;;;;;19.50;65.85;100377.06;5127514;28;20177;-68
2023/10/14 00:33:37;;;;;;;0.00;0.00;;;;;;;20.54;64.75;100384.56;5122471;28;20243;-68
2023/10/14 00:36:03;;;;;;;0.00;0.00;;;;;;;21.24;61.79;100388.38;5114340;28;20031;-69
2023/10/14 00:38:34;;;;;;;0.00;0.00;;;;;;;21.41;59.01;100396.16;5123138;28;20016;-69
2023/10/14 00:40:59;;;;;;;0.00;0.00;;;;;;;21.02;63.16;100400.34;5119703;28;20101;-68
2023/10/14 00:43:25;;;;;;;0.00;0.00;;;;;;;21.63;59.03;100405.50;5096337;28;20064;-68
2023/10/14 00:45:52;;;;;;;0.10;0.10;;;;;;;22.01;58.17;100411.00;5122811;28;20031;-68
2023/10/14 00:48:20;;;;;;;0.00;0.00;;;;;;;21.15;59.60;100422.53;5127298;28;20019;-68
2023/10/14 00:50:46;;;;;;;0.00;0.00;;;;;;;21.49;58.00;100425.78;5115747;28;20038;-69
2023/10/14 00:53:12;;;;;;;0.00;0.00;;;;;;;20.92;57.85;100423.06;5117323;28;20027;-68
2023/10/14 00:55:54;;;;;;;0.00;0.00;;;;;;;21.70;55.34;100430.72;5124503;28;20032;-68
2023/10/14 00:58:21;;;;;;;0.00;0.00;;;;;;;21.34;55.19;100429.41;5110437;28;20028;-69
2023/10/14 01:01:08;;;;;;;0.00;0.00;;;;;;;20.76;56.48;100437.28;5124805;27;20079;-68
2023/10/14 01:03:34;;;;;;;0.00;0.00;;;;;;;20.55;59.01;100439.34;5118051;27;20088;-68
2023/10/14 01:06:16;;;;;;;0.00;0.00;;;;;;;20.78;55.28;100448.66;5097308;27;20466;-67
2023/10/14 01:08:43;;;;;;;0.00;0.00;;;;;;;19.77;54.87;100458.69;5115309;27;20428;-68
2023/10/14 01:11:09;;;;;;;0.00;0.00;;;;;;;20.50;55.47;100462.66;5122202;27;20023;-67
2023/10/14 01:13:35;;;;;;;0.00;0.00;;;;;;;20.07;56.89;100470.38;5109311;27;20391;-67
2023/10/14 01:16:02;;;;;;;0.00;0.00;;;;;;;20.33;54.07;100474.22;5118271;27;20024;-67
2023/10/14 01:18:27;;;;;;;0.00;0.00;;;;;;;20.33;53.61;100482.19;5117763;27;20026;-67
2023/10/14 01:20:54;;;;;;;0.00;0.00;;;;;;;20.15;53.77;100494.69;5134305;27;20027;-67
2023/10/14 01:23:21;;;;;;;0.00;0.00;;;;;;;19.98;53.22;100495.63;5128238;27;20019;-67
2023/10/14 01:25:51;;;;;;;0.00;0.00;;;;;;;20.12;54.91;100495.72;5100126;28;20038;-67
2023/10/14 01:28:29;;;;;;;0.00;0.00;;;;;;;19.90;53.42;100495.19;5113455;27;20046;-68
2023/10/14 01:31:30;;;;;;;0.00;0.00;;;;;;;20.03;53.94;100498.88;5128484;27;20031;-68
2023/10/14 01:33:57;;;;;;;0.00;0.00;;;;;;;20.06;53.44;100504.03;5120117;27;20568;-68
2023/10/14 01:36:44;;;;;;;0.00;0.00;;;;;;;19.66;53.36;100524.72;5113643;28;20019;-68
2023/10/14 01:39:20;;;;;;;0.00;0.00;;;;;;;19.51;53.53;100529.03;5111209;27;20034;-67
2023/10/14 01:41:46;;;;;;;0.00;0.00;;;;;;;19.97;52.45;100525.75;5115945;27;20032;-67
2023/10/14 01:44:15;;;;;;;0.00;0.00;;;;;;;19.13;52.87;100543.28;5113286;27;20072;-67
2023/10/14 01:46:42;;;;;;;0.10;0.10;;;;;;;19.47;52.22;100540.72;5128826;27;20035;-67
2023/10/14 01:49:10;;;;;;;0.00;0.00;;;;;;;20.06;52.11;100541.16;5112697;27;20031;-67
2023/10/14 01:51:38;;;;;;;0.00;0.00;;;;;;;18.91;51.26;100545.31;5117551;27;20038;-67
2023/10/14 01:54:04;;;;;;;0.00;0.00;;;;;;;18.93;53.27;100540.78;5112139;27;20023;-67
2023/10/14 01:56:30;;;;;;;0.00;0.00;;;;;;;18.81;53.47;100552.81;5114576;27;20079;-67
2023/10/14 01:58:59;;;;;;;0.00;0.00;;;;;;;19.25;51.88;100562.16;5111329;28;20027;-67
2023/10/14 02:01:27;;;;;;;1.70;1.50;;;;;;;18.56;52.24;100564.59;5125196;27;20071;-67
2023/10/14 02:03:54;;;;;;;0.00;0.00;;;;;;;18.88;52.93;100570.13;5107774;27;20034;-66
2023/10/14 02:06:28;;;;;;;0.00;0.00;;;;;;;18.95;51.09;100568.91;5119564;27;20034;-67
2023/10/14 02:08:55;;;;;;;0.10;0.10;;;;;;;18.88;51.97;100580.72;5114578;27;20383;-67
2023/10/14 02:11:24;;;;;;;0.00;0.00;;;;;;;19.19;51.97;100599.53;5110978;27;20027;-67
2023/10/14 02:13:50;;;;;;;0.00;0.00;;;;;;;19.42;51.01;100590.44;5116246;27;20066;-67
2023/10/14 02:16:50;;;;;;;0.17;0.17;;;;;;;18.66;50.91;100596.75;5117526;27;20031;-67
2023/10/14 02:19:36;;;;;;;0.10;0.10;;;;;;;19.33;50.46;100607.69;5109134;27;20023;-67
2023/10/14 02:22:02;;;;;;;0.00;0.00;;;;;;;19.56;50.30;100613.59;5093938;28;20449;-67
2023/10/14 02:24:28;;;;;;;0.00;0.00;;;;;;;18.87;51.41;100620.50;5114216;27;20111;-67
2023/10/14 02:27:03;;;;;;;0.00;0.00;;;;;;;19.09;51.26;100626.47;5111646;27;20078;-67
2023/10/14 02:29:29;;;;;;;0.00;0.00;;;;;;;19.63;51.55;100633.53;5111689;27;20027;-67
2023/10/14 02:31:54;;;;;;;0.00;0.00;;;;;;;19.93;50.36;100628.47;5111754;27;20070;-67
2023/10/14 02:34:19;;;;;;;0.00;0.00;;;;;;;19.34;51.01;100646.47;5121088;27;20110;-66
2023/10/14 02:36:51;;;;;;;0.00;0.00;;;;;;;19.97;49.72;100640.63;5118742;27;20023;-67
2023/10/14 02:39:17;;;;;;;0.00;0.00;;;;;;;19.74;51.72;100655.09;5120416;27;20053;-67
2023/10/14 02:41:59;;;;;;;0.00;0.00;;;;;;;20.16;49.49;100659.09;5112341;27;20074;-68
2023/10/14 02:44:31;;;;;;;0.03;0.03;;;;;;;20.05;50.59;100664.13;5110401;27;20119;-67
2023/10/14 02:47:04;;;;;;;9.38;0.82;;;;;;;19.82;50.21;100671.50;5113243;27;20033;-67
2023/10/14 02:49:37;;;;;;;8.75;1.27;;;;;;;19.42;50.75;100681.41;5116846;27;20431;-68
2023/10/14 02:52:11;;;;;;;6.00;0.70;;;;;;;19.53;49.43;100683.53;5105570;27;20461;-68
2023/10/14 02:54:44;;;;;;;5.35;0.65;;;;;;;19.61;49.92;100693.75;5116194;27;20175;-67
2023/10/14 02:57:28;;;;;;;8.32;1.10;;;;;;;20.15;49.07;100697.22;5123665;27;20035;-67
2023/10/14 02:59:57;;;;;;;4.88;0.60;;;;;;;20.48;48.68;100693.69;5113477;27;20027;-67
2023/10/14 03:07:31;;;;;;;3.47;0.93;;;;;;;19.85;49.73;100726.13;5111790;27;20031;-67
2023/10/14 03:10:35;;;;;;;4.68;0.73;;;;;;;20.13;49.69;100732.72;5129408;27;20386;-67
2023/10/14 03:12:51;;;;;;;8.52;1.30;;;;;;;19.96;49.12;100733.56;5124870;27;20028;-67
2023/10/14 03:15:21;;;;;;;15.25;1.45;;;;;;;19.42;48.74;100739.69;5114642;27;20071;-67
2023/10/14 03:18:01;;;;;;;7.18;1.70;;;;;;;19.29;48.01;100736.81;5118622;27;20027;-68
2023/10/14 03:20:36;;;;;;;5.15;0.40;;;;;;;19.55;46.44;100755.00;5124802;27;20035;-67
2023/10/14 03:23:09;;;;;;;1.02;0.38;;;;;;;18.77;47.19;100757.75;5123434;27;20030;-67
2023/10/14 03:25:35;;;;;;;8.60;0.98;;;;;;;19.08;47.17;100759.88;5113418;27;20027;-67
2023/10/14 03:28:37;;;;;;;9.35;1.25;;;;;;;19.45;45.58;100766.09;5127118;27;20035;-67
2023/10/14 03:30:58;;;;;;;2.17;0.82;;;;;;;19.60;45.67;100768.91;5118312;27;20039;-67
2023/10/14 03:33:27;;;;;;;6.40;0.80;;;;;;;18.97;46.89;100776.28;5111273;27;20056;-66
2023/10/14 03:35:57;;;;;;;5.72;1.38;;;;;;;19.69;44.22;100779.06;5110509;27;20027;-67
2023/10/14 03:38:26;;;;;;;4.60;0.88;;;;;;;19.16;45.43;100775.41;5119732;27;20031;-67
2023/10/14 03:41:02;;;;;;;7.17;0.80;;;;;;;19.41;44.11;100774.25;5110997;27;20027;-67
2023/10/14 03:43:28;;;;;;;4.35;0.63;;;;;;;19.27;45.36;100788.16;5113998;27;20102;-67
2023/10/14 03:46:02;;;;;;;8.50;0.87;;;;;;;19.20;46.00;100797.31;5129821;27;20031;-66
2023/10/14 03:48:29;;;;;;;7.50;0.97;;;;;;;19.41;45.25;100798.97;5118511;27;20070;-67
2023/10/14 03:51:02;;;;;;;2.63;0.50;;;;;;;19.28;46.08;100800.47;5126878;27;20513;-67
2023/10/14 03:53:32;;;;;;;6.03;0.70;;;;;;;19.41;46.04;100800.75;5113694;27;20031;-66
2023/10/14 03:55:59;;;;;;;3.27;0.70;;;;;;;18.82;47.41;100806.91;5120118;27;20487;-68
2023/10/14 03:58:24;;;;;;;5.00;0.97;;;;;;;19.88;45.21;100817.97;5120931;27;20020;-67
2023/10/14 04:00:52;;;;;;;4.17;0.77;;;;;;;18.67;45.89;100815.56;5110287;28;20108;-68
2023/10/14 04:04:14;;;;;;;5.27;0.77;;;;;;;19.37;46.48;100818.59;5114656;27;20100;-67
2023/10/14 04:06:07;;;;;;;4.63;0.98;;;;;;;19.65;46.12;100814.63;5101706;28;20126;-67
2023/10/14 04:08:39;;;;;;;11.93;0.82;;;;;;;19.78;46.62;100825.47;5113078;27;20035;-67
2023/10/14 04:11:14;;;;;;;5.70;0.93;;;;;;;19.15;45.35;100826.66;5109713;28;20024;-67
2023/10/14 04:16:48;;;;;;;3.13;0.93;;;;;;;18.55;46.92;100846.06;5122097;27;20026;-67
2023/10/14 04:19:22;;;;;;;5.43;0.80;;;;;;;19.59;45.73;100839.63;5096577;27;20787;-67
2023/10/14 04:21:59;;;;;;;3.25;0.70;;;;;;;18.40;47.14;100854.66;5126444;27;20485;-67
2023/10/14 04:26:51;;;;;;;3.70;0.60;;;;;;;18.51;47.37;100862.16;5125247;27;20122;-67
2023/10/14 04:29:39;;;;;;;6.10;0.70;;;;;;;18.61;48.20;100866.09;5114304;27;20106;-67
2023/10/14 04:32:14;;;;;;;5.10;0.70;;;;;;;19.36;46.40;100872.53;5104338;28;20026;-67
2023/10/14 04:34:44;;;;;;;9.23;0.70;;;;;;;19.24;46.44;100884.53;5111787;28;20428;-67
2023/10/14 04:37:12;;;;;;;2.93;0.50;;;;;;;18.80;46.64;100890.84;5124286;28;20027;-67
2023/10/14 04:39:42;;;;;;;2.30;0.63;;;;;;;19.24;46.28;100883.69;5117950;28;20016;-67
2023/10/14 04:44:55;;;;;;;7.80;0.90;;;;;;;18.95;46.60;100899.09;5116557;28;20110;-67
2023/10/14 04:47:35;;;;;;;5.87;0.87;;;;;;;18.71;45.65;100901.84;5118419;28;20572;-67
2023/10/14 04:50:10;;;;;;;4.38;0.93;;;;;;;18.37;46.81;100903.28;5111248;28;20046;-68
2023/10/14 04:52:39;;;;;;;5.70;1.67;;;;;;;18.66;46.77;100909.13;5110540;28;20088;-67
2023/10/14 04:55:47;;;;;;;10.73;1.00;;;;;;;19.16;45.03;100918.47;5110646;28;20033;-67
2023/10/14 04:58:11;;;;;;;4.77;0.80;;;;;;;19.23;44.63;100929.66;5118362;28;20031;-68
2023/10/14 05:00:49;;;;;;;3.83;0.90;;;;;;;18.26;47.19;100934.59;5118891;28;20039;-67
2023/10/14 05:03:21;;;;;;;8.57;1.50;;;;;;;19.34;44.85;100927.38;5120619;28;20531;-68
2023/10/14 05:05:57;;;;;;;6.22;0.95;;;;;;;19.33;44.52;100938.91;5130430;28;20189;-67
2023/10/14 05:08:43;;;;;;;5.90;1.27;;;;;;;19.31;44.59;100943.41;5111310;28;20036;-68
2023/10/14 05:11:12;;;;;;;7.10;0.57;;;;;;;19.47;43.51;100939.13;5126445;28;20151;-68
2023/10/14 05:13:39;;;;;;;5.73;0.77;;;;;;;19.61;43.38;100951.75;5113699;28;20023;-68
2023/10/14 05:16:26;;;;;;;5.27;0.73;;;;;;;19.90;43.84;100951.38;5127470;28;20054;-67
2023/10/14 05:19:00;;;;;;;6.87;0.90;;;;;;;19.02;44.18;100953.50;5110271;28;20116;-68
2023/10/14 05:21:36;;;;;;;2.43;0.67;;;;;;;19.35;44.19;100963.56;5111902;28;20115;-68
2023/10/14 05:24:09;;;;;;;4.32;0.60;;;;;;;19.46;44.13;100963.91;5112917;28;20027;-68
2023/10/14 05:26:47;;;;;;;3.77;1.10;;;;;;;19.67;43.21;100969.16;5103601;28;20057;-67
2023/10/14 05:29:22;;;;;;;7.68;1.45;;;;;;;19.78;46.30;100980.16;5126611;28;20084;-67
2023/10/14 05:31:48;;;;;;;8.43;1.05;;;;;;;19.22;44.22;100975.63;5127021;28;20035;-67
2023/10/14 05:34:15;;;;;;;9.67;1.50;;;;;;;18.96;45.67;100985.56;5120884;28;20031;-67
2023/10/14 05:36:41;;;;;;;12.38;1.30;;;;;;;19.24;44.51;100981.72;5108838;28;20031;-69
2023/10/14 05:39:10;;;;;;;3.97;0.97;;;;;;;19.37;43.18;100985.56;5088460;28;20031;-68
2023/10/14 05:41:36;;;;;;;11.00;1.60;;;;;;;19.30;44.15;100984.97;5092136;28;20023;-68
2023/10/14 05:44:04;;;;;;;5.55;1.15;;;;;;;19.33;44.42;100994.56;5090180;28;20035;-67
2023/10/14 05:46:29;;;;;;;8.23;0.90;;;;;;;19.31;43.56;100991.97;5112765;28;20059;-67
2023/10/14 05:48:56;;;;;;;13.30;1.03;;;;;;;18.91;45.00;100993.69;5094593;28;20761;-68
2023/10/14 05:51:22;;;;;;;8.20;1.08;;;;;;;18.51;45.01;101005.06;5112460;27;20038;-67
2023/10/14 05:53:48;;;;;;;12.52;1.27;;;;;;;19.39;45.53;101007.53;5127148;27;20027;-68
2023/10/14 05:56:17;;;;;;;7.03;1.00;;;;;;;19.05;46.16;101005.50;5122578;27;20022;-68
2023/10/14 05:58:45;;;;;;;5.70;1.90;;;;;;;18.68;47.13;101012.31;5096316;27;20020;-68
2023/10/14 06:01:13;;;;;;;12.87;2.47;;;;;;;18.84;46.63;101017.84;5128634;27;20097;-68
2023/10/14 06:03:41;;;;;;;7.80;1.50;;;;;;;18.70;47.22;101031.63;5114401;27;20390;-68
2023/10/14 06:06:10;;;;;;;8.97;1.47;;;;;;;18.44;47.06;101029.09;5113566;27;20112;-68
2023/10/14 06:08:39;;;;;;;9.60;2.13;;;;;;;18.78;46.82;101033.03;5125107;27;20145;-68
2023/10/14 06:11:05;;;;;;;6.82;0.95;;;;;;;19.52;45.60;101037.00;5115843;27;20036;-68
2023/10/14 06:13:34;;;;;;;4.20;1.25;;;;;;;19.73;46.02;101043.16;5115243;27;20027;-68
2023/10/14 06:16:10;;;;;;;8.30;1.42;;;;;;;19.53;46.08;101053.78;5132257;27;20045;-68
2023/10/14 06:18:39;;;;;;;7.45;1.05;;;;;;;18.87;46.76;101070.66;5122418;27;20034;-68
2023/10/14 06:21:06;;;;;;;5.40;0.97;;;;;;;19.23;46.37;101062.97;5114556;27;20023;-69
2023/10/14 06:23:33;;;;;;;9.73;1.60;;;;;;;18.33;46.84;101076.31;5122007;27;20475;-68
2023/10/14 06:25:59;;;;;;;12.90;1.67;;;;;;;18.95;46.75;101063.28;5092487;28;20076;-68
2023/10/14 06:28:25;;;;;;;3.23;1.63;;;;;;;18.88;47.43;101069.78;5118876;27;20463;-68
2023/10/14 06:30:51;;;;;;;6.22;1.10;;;;;;;18.00;48.83;101074.03;5120813;27;20030;-68
2023/10/14 06:33:16;;;;;;;13.80;1.13;;;;;;;19.02;47.07;101080.66;5128305;27;20375;-68
2023/10/14 06:35:42;;;;;;;4.90;0.80;;;;;;;18.60;48.61;101084.06;5119680;27;20447;-68
2023/10/14 06:38:09;;;;;;;6.30;1.47;;;;;;;18.38;49.08;101084.94;5111152;28;20037;-68
2023/10/14 06:40:35;;;;;;;2.27;0.60;;;;;;;19.10;49.25;101089.16;5105477;28;20028;-68
2023/10/14 06:43:09;;;;;;;13.50;2.33;;;;;;;18.51;49.71;101106.50;5110088;27;20039;-68
2023/10/14 06:45:35;;;;;;;7.90;1.10;;;;;;;18.18;50.16;101103.34;5112036;28;20077;-69
2023/10/14 06:48:09;;;;;;;4.30;1.10;;;;;;;19.29;48.67;101098.97;5112964;27;20038;-68
2023/10/14 06:50:38;;;;;;;10.23;1.13;;;;;;;18.35;49.55;101116.78;5123304;27;20035;-69
2023/10/14 06:53:14;;;;;;;10.67;1.67;;;;;;;19.44;47.87;101113.34;5103053;28;20031;-68
2023/10/14 06:55:40;;;;;;;16.88;1.00;;;;;;;19.17;48.57;101123.34;5111955;27;20139;-68
2023/10/14 06:58:09;;;;;;;9.52;1.08;;;;;;;18.11;49.50;101135.31;5111069;28;20519;-68
2023/10/14 07:00:37;;;;;;;4.85;1.08;;;;;;;18.55;48.97;101139.84;5111029;27;20044;-69
2023/10/14 07:03:06;;;;;;;13.55;1.83;;;;;;;18.96;49.34;101147.13;5093542;27;20568;-68
2023/10/14 07:05:42;;;;;;;10.03;1.37;;;;;;;18.86;49.00;101153.69;5111944;28;20102;-69
2023/10/14 07:08:09;;;;;;;6.83;1.30;;;;;;;18.51;48.97;101158.56;5114962;27;20047;-68
2023/10/14 07:10:34;;;;;;;5.05;0.80;;;;;;;18.55;49.33;101160.19;5093387;28;20020;-69
2023/10/14 07:13:01;;;;;;;7.63;1.42;;;;;;;19.33;48.25;101158.88;5114507;27;20096;-69
2023/10/14 07:15:31;;;;;;;7.10;1.17;;;;;;;18.96;49.21;101176.28;5118411;27;20039;-69
2023/10/14 07:17:57;;;;;;;8.30;1.23;;;;;;;19.33;47.96;101169.47;5125632;27;20027;-69
2023/10/14 07:20:22;;;;;;;11.50;1.38;;;;;;;19.24;48.96;101169.84;5120748;27;20106;-69
2023/10/14 07:22:49;;;;;;;8.23;1.63;;;;;;;19.38;47.00;101167.47;5098525;27;20127;-69
2023/10/14 07:25:15;;;;;;;7.95;1.35;;;;;;;20.11;46.51;101178.56;5092909;28;20391;-69
2023/10/14 07:27:40;;;;;;;13.23;1.42;;;;;;;19.26;46.84;101186.53;5122365;27;20146;-69
2023/10/14 07:30:16;;;;;;;7.38;0.93;;;;;;;19.36;47.05;101187.00;5103093;28;20552;-69
2023/10/14 07:32:47;;;;;;;8.55;0.82;;;;;;;19.21;46.15;101196.47;5115237;27;20398;-69
2023/10/14 07:35:15;;;;;;;6.22;0.90;;;;;;;18.82;47.01;101209.41;5111313;28;20023;-69
2023/10/14 07:37:45;;;;;;;6.30;1.23;;;;;;;20.41;44.76;101201.97;5123611;27;20031;-69
2023/10/14 07:40:22;;;;;;;7.78;0.70;;;;;;;19.28;45.79;101200.59;5115185;27;20230;-69
2023/10/14 07:42:52;;;;;;;4.43;1.15;;;;;;;19.32;45.83;101215.44;5114717;27;20036;-69
2023/10/14 07:45:18;;;;;;;8.00;1.10;;;;;;;20.07;44.44;101208.81;5092912;28;20035;-69
2023/10/14 07:47:44;;;;;;;5.30;0.50;;;;;;;20.64;42.89;101224.81;5110815;27;20039;-69
2023/10/14 07:50:10;;;;;;;7.53;1.15;;;;;;;18.87;44.90;101232.22;5124824;27;20047;-69
2023/10/14 07:52:37;;;;;;;8.85;1.40;;;;;;;19.36;45.29;101242.66;5112925;27;20046;-69
2023/10/14 07:55:04;;;;;;;5.18;1.08;;;;;;;19.55;44.64;101235.72;5094368;28;20093;-69
2023/10/14 07:57:29;;;;;;;6.53;0.88;;;;;;;19.17;44.55;101237.28;5108620;28;20023;-69
2023/10/14 07:59:59;;;;;;;14.50;1.40;;;;;;;19.96;43.31;101240.22;5113041;27;20048;-69
2023/10/14 08:02:26;;;;;;;8.32;0.90;;;;;;;19.92;43.63;101235.97;5110572;28;20491;-69
2023/10/14 08:04:53;;;;;;;6.82;1.20;;;;;;;20.16;43.40;101231.41;5121806;27;20015;-69
2023/10/14 08:07:19;;;;;;;7.97;1.55;;;;;;;19.30;44.04;101246.44;5128641;27;20409;-69
2023/10/14 08:09:44;;;;;;;10.88;1.65;;;;;;;19.24;44.71;101259.94;5117391;28;20031;-70
2023/10/14 08:12:10;;;;;;;7.10;0.82;;;;;;;19.11;43.83;101259.53;5120080;27;20230;-69
2023/10/14 08:14:35;;;;;;;7.70;1.13;;;;;;;18.87;44.50;101264.00;5120524;27;20111;-68
2023/10/14 08:17:00;;;;;;;7.35;0.70;;;;;;;19.12;43.42;101264.81;5092576;28;20028;-69
2023/10/14 08:19:26;;;;;;;4.80;0.80;;;;;;;19.68;43.09;101265.22;5109758;28;20015;-68
2023/10/14 08:21:52;;;;;;;7.18;0.73;;;;;;;19.14;44.28;101278.00;5122540;27;20511;-69
2023/10/14 08:24:20;;;;;;;4.70;1.42;;;;;;;18.97;43.35;101283.91;5098207;28;20597;-69
2023/10/14 08:26:46;;;;;;;6.55;1.15;;;;;;;18.79;43.48;101286.34;5109923;28;20024;-69
2023/10/14 08:29:12;;;;;;;3.55;0.73;;;;;;;20.00;42.40;101282.50;5111882;27;20019;-69
2023/10/14 08:31:38;;;;;;;6.00;1.05;;;;;;;19.91;42.92;101288.19;5115975;27;20030;-69
2023/10/14 08:34:07;;;;;;;6.32;0.77;;;;;;;18.95;42.82;101291.09;5110585;28;20471;-68
2023/10/14 08:36:32;;;;;;;9.43;1.00;;;;;;;20.09;42.13;101297.13;5111530;28;20019;-69
2023/10/14 08:38:58;;;;;;;6.20;1.13;;;;;;;20.59;41.97;101287.03;5113322;28;20502;-69
2023/10/14 08:41:26;;;;;;;2.70;0.80;;;;;;;19.88;42.80;101298.03;5114559;28;20486;-69
2023/10/14 08:43:56;;;;;;;5.53;0.80;;;;;;;19.28;42.75;101312.75;5113643;28;20022;-69
2023/10/14 08:46:29;;;;;;;7.03;0.93;;;;;;;19.46;42.76;101308.50;5106882;28;20370;-69
2023/10/14 08:48:55;;;;;;;4.53;1.20;;;;;;;19.80;43.04;101316.94;5119675;28;20567;-69
2023/10/14 08:51:25;;;;;;;7.20;0.80;;;;;;;19.26;43.27;101313.72;5112399;28;20038;-69
2023/10/14 08:53:53;;;;;;;11.25;1.23;;;;;;;20.29;42.81;101319.31;5112321;28;20066;-69
2023/10/14 08:56:19;;;;;;;5.40;1.02;;;;;;;20.25;42.72;101312.41;5097541;28;20028;-70
2023/10/14 08:58:45;;;;;;;4.93;1.20;;;;;;;19.99;42.20;101322.34;5093943;28;20833;-69
2023/10/14 09:01:15;;;;;;;6.15;1.27;;;;;;;20.53;42.79;101321.84;5109153;28;20061;-69
2023/10/14 09:03:45;;;;;;;6.18;1.00;;;;;;;19.35;43.50;101329.28;5117329;28;20031;-69
2023/10/14 09:06:11;;;;;;;11.30;1.30;;;;;;;19.28;42.91;101341.06;5111402;28;20103;-69
2023/10/14 09:08:37;;;;;;;11.75;1.35;;;;;;;20.10;41.51;101351.94;5111587;28;20481;-69
2023/10/14 09:11:03;;;;;;;8.65;0.82;;;;;;;20.58;40.91;101343.72;5116769;28;20034;-69
2023/10/14 09:13:29;;;;;;;9.52;1.13;;;;;;;20.73;41.13;101343.09;5101630;28;20114;-69
2023/10/14 09:15:57;;;;;;;4.70;0.82;;;;;;;19.91;40.65;101351.00;5129221;28;20375;-69
2023/10/14 09:18:27;;;;;;;9.45;1.10;;;;;;;20.12;40.87;101344.78;5111943;28;20039;-69
2023/10/14 09:20:56;;;;;;;5.20;1.20;;;;;;;20.91;40.31;101343.19;5120676;27;20046;-68
2023/10/14 09:23:23;;;;;;;15.48;1.40;;;;;;;21.12;39.96;101352.84;5094912;28;20344;-70
2023/10/14 09:25:56;;;;;;;3.42;0.68;;;;;;;21.44;39.29;101360.25;5113708;28;20028;-70
2023/10/14 09:28:28;;;;;;;1.05;0.50;;;;;;;20.83;40.56;101362.13;5094263;27;20588;-69
2023/10/14 09:30:57;;;;;;;7.60;0.82;;;;;;;21.54;40.01;101364.19;5111995;27;20031;-69
2023/10/14 09:33:28;;;;;;;7.55;1.75;;;;;;;20.62;39.87;101369.22;5115998;27;20028;-69
2023/10/14 09:36:04;;;;;;;3.65;0.80;;;;;;;20.72;39.90;101375.88;5117926;27;20039;-69
2023/10/14 09:38:34;;;;;;;7.63;0.93;;;;;;;20.60;39.44;101371.09;5115834;27;20031;-69
2023/10/14 09:41:04;;;;;;;14.18;1.10;;;;;;;20.91;39.02;101369.75;5117223;27;20047;-69
2023/10/14 09:43:31;;;;;;;5.68;0.88;;;;;;;20.96;39.96;101365.09;5118080;27;20023;-70
2023/10/14 09:45:59;;;;;;;5.63;0.98;;;;;;;20.62;39.90;101377.19;5102549;27;20339;-69
2023/10/14 09:48:31;;;;;;;9.68;1.20;;;;;;;21.65;38.82;101392.94;5103263;27;20023;-69
2023/10/14 09:51:00;;;;;;;5.65;0.80;;;;;;;20.08;38.99;101393.59;5098443;28;20038;-70
2023/10/14 09:53:27;;;;;;;4.05;0.68;;;;;;;20.56;38.68;101382.78;5126179;27;20110;-70
2023/10/14 09:55:55;;;;;;;4.95;0.93;;;;;;;20.91;38.05;101396.31;5123349;27;20031;-69
2023/10/14 09:58:23;;;;;;;5.85;0.65;;;;;;;21.45;38.81;101389.41;5133036;27;20057;-70
2023/10/14 10:00:49;;;;;;;10.85;1.63;;;;;;;20.81;38.27;101402.06;5133403;27;20134;-69
2023/10/14 10:03:15;;;;;;;5.88;1.45;;;;;;;20.51;39.56;101399.75;5121122;27;20102;-69
2023/10/14 10:06:17;;;;;;;5.53;0.60;;;;;;;20.83;39.09;101410.81;5121437;27;20031;-69
2023/10/14 10:09:25;;;;;;;6.80;0.93;;;;;;;20.21;39.16;101416.97;5057035;28;20045;-69
2023/10/14 10:11:53;;;;;;;4.70;0.82;;;;;;;19.97;38.71;101425.00;5046161;28;20055;-70
2023/10/14 10:14:25;;;;;;;5.65;0.90;;;;;;;20.81;39.04;101423.31;5114364;27;20031;-69
2023/10/14 10:16:56;;;;;;;5.15;0.95;;;;;;;20.84;37.11;101428.47;5125299;27;20582;-69
2023/10/14 10:19:22;;;;;;;8.67;1.07;;;;;;;19.94;37.22;101433.09;5112633;27;20403;-69
2023/10/14 10:22:12;;;;;;;2.80;0.50;;;;;;;20.50;37.41;101456.44;5122775;27;20027;-68
2023/10/14 10:24:41;;;;;;;5.10;1.00;;;;;;;19.70;37.47;101437.53;5113205;27;20577;-68
2023/10/14 10:27:10;;;;;;;3.80;0.70;;;;;;;19.90;36.67;101450.06;5112667;27;20110;-70
2023/10/14 10:29:45;;;;;;;6.72;0.73;;;;;;;19.93;38.75;101439.31;5114284;27;20031;-68
2023/10/14 10:32:17;;;;;;;6.90;0.88;;;;;;;20.01;38.10;101431.91;5106212;28;20291;-69
2023/10/14 10:35:08;;;;;;;3.92;0.88;;;;;;;20.42;39.82;101431.16;5111898;28;20027;-68
2023/10/14 10:37:41;;;;;;;4.07;0.73;;;;;;;19.96;38.58;101449.78;5121128;27;20072;-69
2023/10/14 10:40:11;;;;;;;3.33;0.35;;;;;;;19.96;36.94;101444.50;5116352;27;20019;-69
2023/10/14 10:42:48;;;;;;;4.65;0.90;;;;;;;20.58;36.70;101441.97;5094058;28;20055;-69
2023/10/14 10:45:21;;;;;;;4.15;0.85;;;;;;;20.29;36.48;101449.38;5111801;28;20031;-68
2023/10/14 10:47:55;;;;;;;3.78;0.90;;;;;;;20.17;37.83;101456.06;5113280;27;20031;-69
2023/10/14 10:50:35;;;;;;;7.40;1.55;;;;;;;19.79;37.07;101461.91;5094273;27;20065;-69
2023/10/14 10:53:10;;;;;;;2.92;0.47;;;;;;;19.74;37.02;101460.34;5130549;27;20035;-68
2023/10/14 10:55:40;;;;;;;2.58;0.82;;;;;;;20.22;36.91;101466.47;5116966;27;20059;-68
2023/10/14 10:58:08;;;;;;;7.30;0.60;;;;;;;19.61;37.54;101459.97;5109605;27;20054;-68
2023/10/14 11:00:34;;;;;;;1.60;0.40;;;;;;;19.96;37.32;101455.09;5119554;27;20047;-68
2023/10/14 11:03:01;;;;;;;5.60;1.48;;;;;;;19.60;37.43;101463.53;5112830;27;20031;-68
2023/10/14 11:05:28;;;;;;;6.55;1.77;;;;;;;20.29;37.00;101467.94;5115633;27;20027;-68
2023/10/14 11:07:55;;;;;;;4.70;1.15;;;;;;;19.96;37.59;101463.94;5125154;27;20061;-69
2023/10/14 11:10:23;;;;;;;3.38;0.77;;;;;;;20.28;37.75;101467.09;5118152;27;20035;-68
2023/10/14 11:12:48;;;;;;;1.98;0.82;;;;;;;21.56;37.31;101471.38;5120204;27;20110;-68
2023/10/14 11:15:21;;;;;;;3.65;0.65;;;;;;;20.59;37.74;101470.25;5098833;27;20118;-68
2023/10/14 11:17:56;;;;;;;1.58;0.60;;;;;;;20.25;38.84;101477.84;5121454;27;20034;-69
2023/10/14 11:20:24;;;;;;;5.15;1.30;;;;;;;20.47;37.74;101467.19;5126350;27;20479;-68
2023/10/14 11:22:56;;;;;;;7.22;0.43;;;;;;;20.15;37.56;101473.81;5092344;28;20478;-68
2023/10/14 11:25:25;;;;;;;4.67;0.80;;;;;;;20.95;36.81;101473.19;5116292;27;20099;-68
2023/10/14 11:27:56;;;;;;;4.32;1.00;;;;;;;21.27;36.13;101475.34;5120214;27;20039;-68
2023/10/14 11:30:27;;;;;;;4.07;0.90;;;;;;;20.99;37.04;101485.41;5122833;27;20023;-68
2023/10/14 11:32:54;;;;;;;2.53;0.50;;;;;;;21.36;34.82;101480.22;5131322;27;20026;-69
2023/10/14 11:35:21;;;;;;;2.78;1.17;;;;;;;20.96;37.24;101484.66;5112559;27;20026;-68
2023/10/14 11:37:51;;;;;;;6.95;0.95;;;;;;;20.44;37.09;101485.91;5096012;27;20403;-68
2023/10/14 11:40:17;;;;;;;2.05;0.50;;;;;;;20.27;37.89;101491.03;5125696;27;20019;-69
2023/10/14 11:42:43;;;;;;;5.95;0.90;;;;;;;20.58;37.95;101495.97;5127407;27;20269;-69
2023/10/14 11:45:08;;;;;;;6.65;1.90;;;;;;;20.92;37.01;101499.00;5115139;27;20204;-68
2023/10/14 11:47:38;;;;;;;2.05;0.40;;;;;;;20.51;35.04;101500.66;5114313;27;20486;-68
2023/10/14 11:50:11;;;;;;;2.97;0.47;;;;;;;20.90;35.15;101506.19;5129428;27;20047;-69
2023/10/14 11:52:38;;;;;;;;;;;;;;;21.02;35.68;101500.34;5131669;27;20471;-69
2023/10/14 11:55:04;;;;;;;5.20;0.50;;;;;;;19.95;37.30;101495.84;5114082;27;19920;-68